createdAt,value
2019-01-26T00:00:08.198Z,100789.12
2019-01-26T00:01:42.214Z,100785.25
2019-01-26T00:03:16.036Z,100778.74
2019-01-26T00:04:49.706Z,100783.58
2019-01-26T00:06:23.645Z,100783.58
2019-01-26T00:07:56.621Z,100786.92
2019-01-26T00:09:32.528Z,100779.24
2019-01-26T00:11:06.540Z,100778.08
2019-01-26T00:12:39.435Z,100785.25
2019-01-26T00:14:12.292Z,100783.58
2019-01-26T00:15:46.408Z,100780.08
2019-01-26T00:17:21.441Z,100783.58
2019-01-26T00:18:55.416Z,100781.41
2019-01-26T00:20:30.587Z,100773.57
2019-01-26T00:22:03.471Z,100775.23
2019-01-26T00:23:37.164Z,100777.58
2019-01-26T00:25:11.234Z,100777.58
2019-01-26T00:26:44.123Z,100783.05
2019-01-26T00:28:18.434Z,100776.88
2019-01-26T00:29:52.332Z,100769.87
2019-01-26T00:31:26.350Z,100769.87
2019-01-26T00:33:00.366Z,100764.53
2019-01-26T00:34:34.286Z,100756.19
2019-01-26T00:36:08.064Z,100759.86
2019-01-26T00:37:42.096Z,100765.20
2019-01-26T00:39:15.328Z,100756.85
2019-01-26T00:40:49.474Z,100755.19
2019-01-26T00:42:23.660Z,100746.84
2019-01-26T00:43:57.728Z,100745.50
2019-01-26T00:45:32.095Z,100744.16
2019-01-26T00:47:06.452Z,100739.33
2019-01-26T00:48:40.723Z,100740.80
2019-01-26T00:50:13.754Z,100744.47
2019-01-26T00:51:47.788Z,100741.47
2019-01-26T00:53:22.223Z,100741.47
2019-01-26T00:54:56.199Z,100737.63
2019-01-26T00:56:30.009Z,100735.80
2019-01-26T00:58:03.111Z,100735.46
2019-01-26T00:59:36.995Z,100744.30
2019-01-26T01:01:10.117Z,100742.11
2019-01-26T01:02:44.497Z,100745.45
2019-01-26T01:04:18.491Z,100741.44
2019-01-26T01:05:52.518Z,100738.11
2019-01-26T01:07:26.322Z,100742.44
2019-01-26T01:08:59.296Z,100734.44
2019-01-26T01:10:34.055Z,100738.08
2019-01-26T01:12:22.894Z,100731.40
2019-01-26T01:13:56.646Z,100727.06
2019-01-26T01:15:31.519Z,100719.89
2019-01-26T01:17:06.033Z,100721.72
2019-01-26T01:18:40.019Z,100717.22
2019-01-26T01:20:13.579Z,100715.05
2019-01-26T01:21:46.472Z,100713.71
2019-01-26T01:23:19.350Z,100712.05
2019-01-26T01:24:52.275Z,100705.03
2019-01-26T01:26:26.233Z,100705.03
2019-01-26T01:27:59.091Z,100712.21
2019-01-26T01:29:31.973Z,100711.37
2019-01-26T01:31:05.031Z,100703.38
2019-01-26T01:32:41.830Z,100701.70
2019-01-26T01:34:14.680Z,100696.03
2019-01-26T01:35:47.990Z,100695.03
2019-01-26T01:37:22.147Z,100701.70
2019-01-26T01:38:57.183Z,100697.03
2019-01-26T01:40:31.149Z,100698.37
2019-01-26T01:42:05.153Z,100693.36
2019-01-26T01:43:39.591Z,100694.36
2019-01-26T01:45:13.338Z,100690.86
2019-01-26T01:46:47.457Z,100692.33
2019-01-26T01:48:20.528Z,100692.70
2019-01-26T01:49:54.592Z,100692.70
2019-01-26T01:51:28.481Z,100692.33
2019-01-26T01:53:01.436Z,100688.69
2019-01-26T01:54:35.751Z,100689.66
2019-01-26T01:56:08.960Z,100684.32
2019-01-26T01:57:41.918Z,100684.82
2019-01-26T01:59:15.410Z,100684.99
2019-01-26T02:00:48.281Z,100683.16
2019-01-26T02:02:21.380Z,100689.33
2019-01-26T02:03:54.592Z,100687.66
2019-01-26T02:05:28.647Z,100684.16
2019-01-26T02:07:02.874Z,100686.33
2019-01-26T02:08:37.053Z,100679.32
2019-01-26T02:10:10.151Z,100676.65
2019-01-26T02:11:44.057Z,100680.98
2019-01-26T02:13:17.222Z,100672.31
2019-01-26T02:14:51.531Z,100667.98
2019-01-26T02:16:24.367Z,100667.98
2019-01-26T02:17:57.278Z,100668.98
2019-01-26T02:19:30.154Z,100667.64
2019-01-26T02:21:02.998Z,100670.81
2019-01-26T02:22:36.911Z,100673.48
2019-01-26T02:24:09.831Z,100671.31
2019-01-26T02:25:42.867Z,100667.78
2019-01-26T02:27:15.874Z,100664.14
2019-01-26T02:28:49.842Z,100660.27
2019-01-26T02:30:26.578Z,100661.11
2019-01-26T02:31:59.764Z,100657.10
2019-01-26T02:33:33.833Z,100660.27
2019-01-26T02:35:06.764Z,100656.63
2019-01-26T02:36:39.514Z,100656.63
2019-01-26T02:38:13.748Z,100655.77
2019-01-26T02:39:49.185Z,100651.30
2019-01-26T02:41:22.400Z,100651.30
2019-01-26T02:42:55.342Z,100644.63
2019-01-26T02:44:28.274Z,100645.96
2019-01-26T02:46:01.807Z,100649.59
2019-01-26T02:47:36.008Z,100649.59
2019-01-26T02:49:08.797Z,100653.97
2019-01-26T02:50:43.059Z,100645.27
2019-01-26T02:52:15.992Z,100651.94
2019-01-26T02:53:49.316Z,100646.59
2019-01-26T02:55:23.224Z,100649.94
2019-01-26T02:56:56.296Z,100645.43
2019-01-26T02:58:30.367Z,100638.92
2019-01-26T03:00:04.621Z,100639.26
2019-01-26T03:01:38.606Z,100637.59
2019-01-26T03:03:12.932Z,100636.25
2019-01-26T03:04:47.515Z,100633.59
2019-01-26T03:06:21.587Z,100629.75
2019-01-26T03:07:55.430Z,100630.59
2019-01-26T03:09:30.687Z,100628.42
2019-01-26T03:11:04.677Z,100621.41
2019-01-26T03:12:37.648Z,100628.59
2019-01-26T03:14:11.101Z,100619.25
2019-01-26T03:15:46.407Z,100626.42
2019-01-26T03:17:21.231Z,100627.25
2019-01-26T03:18:56.009Z,100615.88
2019-01-26T03:20:31.869Z,100614.55
2019-01-26T03:22:06.183Z,100615.55
2019-01-26T03:23:40.522Z,100621.39
2019-01-26T03:25:13.340Z,100616.55
2019-01-26T03:26:46.988Z,100616.89
2019-01-26T03:28:21.105Z,100615.55
2019-01-26T03:29:54.849Z,100613.52
2019-01-26T03:31:28.964Z,100615.22
2019-01-26T03:33:01.977Z,100613.52
2019-01-26T03:34:35.791Z,100612.19
2019-01-26T03:36:08.647Z,100610.02
2019-01-26T03:37:41.732Z,100609.19
2019-01-26T03:39:15.640Z,100596.84
2019-01-26T03:40:49.554Z,100594.69
2019-01-26T03:42:23.220Z,100603.52
2019-01-26T03:43:56.051Z,100598.85
2019-01-26T03:45:29.902Z,100603.36
2019-01-26T03:47:02.748Z,100605.02
2019-01-26T03:48:35.740Z,100597.86
2019-01-26T03:50:08.883Z,100596.49
2019-01-26T03:51:42.775Z,100598.49
2019-01-26T03:53:16.470Z,100598.49
2019-01-26T03:54:50.382Z,100591.82
2019-01-26T03:56:23.334Z,100590.98
2019-01-26T03:57:57.300Z,100589.32
2019-01-26T03:59:30.126Z,100587.16
2019-01-26T04:01:03.120Z,100589.32
2019-01-26T04:02:36.187Z,100580.16
2019-01-26T04:04:09.128Z,100585.82
2019-01-26T04:05:42.961Z,100575.32
2019-01-26T04:07:16.018Z,100573.48
2019-01-26T04:08:49.866Z,100579.82
2019-01-26T04:10:24.860Z,100582.82
2019-01-26T04:11:57.803Z,100584.33
2019-01-26T04:13:31.337Z,100579.82
2019-01-26T04:15:04.755Z,100571.81
2019-01-26T04:16:37.603Z,100576.82
2019-01-26T04:18:11.917Z,100577.66
2019-01-26T04:19:45.273Z,100580.83
2019-01-26T04:21:18.295Z,100573.82
2019-01-26T04:22:51.663Z,100572.82
2019-01-26T04:24:24.555Z,100572.48
2019-01-26T04:25:58.296Z,100568.81
2019-01-26T04:27:31.270Z,100567.98
2019-01-26T04:29:05.634Z,100562.65
2019-01-26T04:30:40.109Z,100566.66
2019-01-26T04:32:13.454Z,100564.98
2019-01-26T04:33:47.198Z,100566.31
2019-01-26T04:35:20.131Z,100572.98
2019-01-26T04:36:54.248Z,100569.48
2019-01-26T04:38:28.339Z,100569.31
2019-01-26T04:40:01.254Z,100570.82
2019-01-26T04:41:35.366Z,100565.48
2019-01-26T04:43:09.223Z,100561.81
2019-01-26T04:44:42.123Z,100563.15
2019-01-26T04:46:14.967Z,100562.45
2019-01-26T04:47:47.902Z,100566.81
2019-01-26T04:49:20.937Z,100558.81
2019-01-26T04:50:54.881Z,100561.48
2019-01-26T04:52:27.821Z,100558.81
2019-01-26T04:54:01.663Z,100558.95
2019-01-26T04:55:35.437Z,100557.12
2019-01-26T04:57:08.314Z,100559.79
2019-01-26T04:58:42.168Z,100558.12
2019-01-26T05:00:15.066Z,100561.28
2019-01-26T05:01:47.881Z,100560.78
2019-01-26T05:03:20.883Z,100558.12
2019-01-26T05:04:53.683Z,100556.79
2019-01-26T05:06:26.716Z,100548.78
2019-01-26T05:08:00.622Z,100556.45
2019-01-26T05:09:34.650Z,100555.45
2019-01-26T05:11:08.649Z,100554.79
2019-01-26T05:12:42.381Z,100555.13
2019-01-26T05:14:15.395Z,100554.95
2019-01-26T05:15:48.311Z,100554.45
2019-01-26T05:17:22.197Z,100555.45
2019-01-26T05:18:56.130Z,100556.80
2019-01-26T05:20:32.250Z,100557.80
2019-01-26T05:22:06.581Z,100558.63
2019-01-26T05:23:39.911Z,100559.95
2019-01-26T05:25:14.257Z,100556.80
2019-01-26T05:26:48.447Z,100557.95
2019-01-26T05:28:22.883Z,100549.63
2019-01-26T05:29:57.227Z,100549.63
2019-01-26T05:31:31.203Z,100554.95
2019-01-26T05:33:04.607Z,100551.79
2019-01-26T05:34:38.920Z,100550.45
2019-01-26T05:36:12.816Z,100547.78
2019-01-26T05:37:46.781Z,100546.78
2019-01-26T05:39:21.685Z,100547.77
2019-01-26T05:40:55.878Z,100545.45
2019-01-26T05:42:29.326Z,100549.29
2019-01-26T05:44:02.215Z,100544.77
2019-01-26T05:45:37.439Z,100536.09
2019-01-26T05:47:10.442Z,100544.42
2019-01-26T05:48:43.594Z,100542.40
2019-01-26T05:50:16.618Z,100544.08
2019-01-26T05:51:50.595Z,100546.73
2019-01-26T05:53:23.455Z,100544.91
2019-01-26T05:54:56.456Z,100550.06
2019-01-26T05:56:29.440Z,100545.07
2019-01-26T05:58:03.346Z,100550.06
2019-01-26T05:59:37.157Z,100539.73
2019-01-26T06:01:11.369Z,100545.43
2019-01-26T06:02:45.054Z,100539.27
2019-01-26T06:04:18.046Z,100538.09
2019-01-26T06:05:52.055Z,100540.09
2019-01-26T06:07:25.877Z,100531.59
2019-01-26T06:08:59.691Z,100533.27
2019-01-26T06:10:33.532Z,100541.09
2019-01-26T06:12:07.466Z,100531.43
2019-01-26T06:13:40.715Z,100535.43
2019-01-26T06:15:13.703Z,100533.06
2019-01-26T06:16:46.571Z,100529.41
2019-01-26T06:18:19.391Z,100531.41
2019-01-26T06:19:52.226Z,100536.38
2019-01-26T06:21:26.219Z,100529.08
2019-01-26T06:22:59.319Z,100531.38
2019-01-26T06:24:33.182Z,100529.91
2019-01-26T06:26:07.219Z,100529.70
2019-01-26T06:27:41.474Z,100525.22
2019-01-26T06:29:14.731Z,100523.72
2019-01-26T06:30:50.271Z,100532.88
2019-01-26T06:32:24.562Z,100531.87
2019-01-26T06:33:59.182Z,100527.74
2019-01-26T06:35:32.071Z,100527.74
2019-01-26T06:37:06.409Z,100528.07
2019-01-26T06:38:43.332Z,100528.73
2019-01-26T06:40:20.774Z,100526.57
2019-01-26T06:41:54.143Z,100532.41
2019-01-26T06:43:29.189Z,100528.91
2019-01-26T06:45:03.243Z,100531.41
2019-01-26T06:46:36.154Z,100530.91
2019-01-26T06:48:10.080Z,100528.41
2019-01-26T06:49:44.036Z,100531.41
2019-01-26T06:51:17.982Z,100528.93
2019-01-26T06:52:51.372Z,100526.77
2019-01-26T06:54:25.534Z,100527.09
2019-01-26T06:55:58.667Z,100523.09
2019-01-26T06:57:31.844Z,100526.59
2019-01-26T06:59:05.433Z,100522.43
2019-01-26T07:00:40.392Z,100522.76
2019-01-26T07:02:14.514Z,100524.09
2019-01-26T07:03:49.214Z,100528.42
2019-01-26T07:05:36.019Z,100527.42
2019-01-26T07:07:17.327Z,100523.42
2019-01-26T07:08:50.090Z,100522.09
2019-01-26T07:10:23.209Z,100520.76
2019-01-26T07:11:56.049Z,100520.76
2019-01-26T07:13:29.743Z,100520.76
2019-01-26T07:15:03.627Z,100520.76
2019-01-26T07:16:36.235Z,100525.09
2019-01-26T07:18:09.813Z,100530.42
2019-01-26T07:19:43.300Z,100530.42
2019-01-26T07:21:17.204Z,100523.75
2019-01-26T07:22:51.054Z,100529.09
2019-01-26T07:24:25.085Z,100528.13
2019-01-26T07:25:59.218Z,100532.63
2019-01-26T07:27:32.071Z,100531.76
2019-01-26T07:29:05.864Z,100530.42
2019-01-26T07:30:39.779Z,100536.76
2019-01-26T07:32:12.552Z,100537.26
2019-01-26T07:33:45.335Z,100533.43
2019-01-26T07:35:19.185Z,100532.77
2019-01-26T07:36:53.521Z,100538.09
2019-01-26T07:38:27.360Z,100539.77
2019-01-26T07:40:01.326Z,100541.78
2019-01-26T07:41:35.384Z,100536.14
2019-01-26T07:43:10.306Z,100534.18
2019-01-26T07:44:44.808Z,100541.38
2019-01-26T07:46:18.693Z,100537.84
2019-01-26T07:47:52.875Z,100544.38
2019-01-26T07:49:26.066Z,100536.86
2019-01-26T07:51:00.106Z,100539.88
2019-01-26T07:52:34.448Z,100540.19
2019-01-26T07:54:08.898Z,100544.03
2019-01-26T07:55:41.796Z,100540.20
2019-01-26T07:57:14.898Z,100541.02
2019-01-26T07:58:49.149Z,100539.34
2019-01-26T08:00:24.297Z,100544.02
2019-01-26T08:01:58.135Z,100538.52
2019-01-26T08:03:31.053Z,100533.98
2019-01-26T08:05:05.084Z,100537.33
2019-01-26T08:06:39.446Z,100536.34
2019-01-26T08:08:13.804Z,100538.00
2019-01-26T08:09:48.052Z,100543.17
2019-01-26T08:11:22.473Z,100536.84
2019-01-26T08:12:55.774Z,100533.84
2019-01-26T08:14:29.928Z,100537.83
2019-01-26T08:16:02.856Z,100533.80
2019-01-26T08:17:36.922Z,100542.64
2019-01-26T08:19:12.028Z,100542.81
2019-01-26T08:20:44.972Z,100545.77
2019-01-26T08:22:19.332Z,100542.42
2019-01-26T08:23:53.172Z,100545.95
2019-01-26T08:25:27.363Z,100542.47
2019-01-26T08:27:01.920Z,100541.48
2019-01-26T08:28:37.551Z,100540.82
2019-01-26T08:30:11.521Z,100540.01
2019-01-26T08:31:45.731Z,100537.67
2019-01-26T08:33:20.283Z,100541.50
2019-01-26T08:34:54.515Z,100537.34
2019-01-26T08:36:29.460Z,100537.83
2019-01-26T08:38:02.266Z,100536.50
2019-01-26T08:39:36.660Z,100536.50
2019-01-26T08:41:11.983Z,100543.17
2019-01-26T08:42:46.033Z,100540.50
2019-01-26T08:44:19.101Z,100535.16
2019-01-26T08:45:52.529Z,100538.49
2019-01-26T08:47:25.804Z,100545.84
2019-01-26T08:48:59.839Z,100547.17
2019-01-26T08:50:35.728Z,100547.50
2019-01-26T08:52:09.847Z,100554.17
2019-01-26T08:53:44.005Z,100552.84
2019-01-26T08:55:18.638Z,100556.67
2019-01-26T08:56:52.301Z,100554.84
2019-01-26T08:58:25.483Z,100549.36
2019-01-26T08:59:58.678Z,100560.02
2019-01-26T09:01:32.547Z,100557.30
2019-01-26T09:05:14.576Z,100556.73
2019-01-26T09:06:52.973Z,100555.20
2019-01-26T09:08:27.256Z,100556.38
2019-01-26T09:10:00.690Z,100553.89
2019-01-26T09:11:34.800Z,100552.73
2019-01-26T09:13:08.988Z,100554.78
2019-01-26T09:14:43.100Z,100548.14
2019-01-26T09:16:17.750Z,100550.48
2019-01-26T09:17:51.948Z,100556.00
2019-01-26T09:19:25.028Z,100558.48
2019-01-26T09:20:59.263Z,100551.34
2019-01-26T09:22:32.359Z,100547.51
2019-01-26T09:24:06.575Z,100550.52
2019-01-26T09:25:39.383Z,100552.19
2019-01-26T09:27:13.300Z,100550.52
2019-01-26T09:28:47.496Z,100550.38
2019-01-26T09:30:22.486Z,100547.20
2019-01-26T09:31:57.658Z,100550.05
2019-01-26T09:33:31.343Z,100551.04
2019-01-26T09:35:05.143Z,100546.88
2019-01-26T09:36:38.840Z,100551.38
2019-01-26T09:38:12.593Z,100554.89
2019-01-26T09:39:46.354Z,100558.87
2019-01-26T09:41:21.175Z,100554.86
2019-01-26T09:42:55.220Z,100556.72
2019-01-26T09:44:29.155Z,100553.87
2019-01-26T09:46:03.087Z,100553.02
2019-01-26T09:47:36.082Z,100551.22
2019-01-26T09:49:09.908Z,100551.03
2019-01-26T09:50:42.722Z,100553.69
2019-01-26T09:52:15.704Z,100546.83
2019-01-26T09:53:49.587Z,100549.43
2019-01-26T09:55:24.558Z,100539.45
2019-01-26T09:56:58.282Z,100543.45
2019-01-26T09:58:32.257Z,100547.77
2019-01-26T10:00:04.975Z,100551.07
2019-01-26T10:01:39.176Z,100547.09
2019-01-26T10:03:13.352Z,100553.59
2019-01-26T10:04:47.836Z,100544.45
2019-01-26T10:06:22.151Z,100548.59
2019-01-26T10:07:56.664Z,100539.76
2019-01-26T10:09:33.644Z,100539.45
2019-01-26T10:11:07.027Z,100544.14
2019-01-26T10:12:41.307Z,100544.30
2019-01-26T10:14:15.681Z,100544.81
2019-01-26T10:15:49.685Z,100547.14
2019-01-26T10:17:23.992Z,100548.28
2019-01-26T10:18:57.439Z,100548.13
2019-01-26T10:20:34.753Z,100544.48
2019-01-26T10:22:08.842Z,100546.64
2019-01-26T10:23:43.188Z,100541.50
2019-01-26T10:25:16.565Z,100545.13
2019-01-26T10:26:51.003Z,100545.97
2019-01-26T10:28:24.819Z,100546.16
2019-01-26T10:29:58.783Z,100545.50
2019-01-26T10:31:32.779Z,100548.80
2019-01-26T10:33:05.577Z,100546.97
2019-01-26T10:34:39.772Z,100544.50
2019-01-26T10:36:31.875Z,100546.83
2019-01-26T10:38:06.082Z,100540.97
2019-01-26T10:39:39.884Z,100539.80
2019-01-26T10:41:21.723Z,100539.45
2019-01-26T10:42:55.620Z,100531.29
2019-01-26T10:44:37.517Z,100532.77
2019-01-26T10:46:11.611Z,100530.78
2019-01-26T10:47:45.298Z,100535.45
2019-01-26T10:49:18.173Z,100531.12
2019-01-26T10:50:53.119Z,100530.80
2019-01-26T10:52:27.906Z,100536.97
2019-01-26T10:54:00.535Z,100535.48
2019-01-26T10:55:34.342Z,100544.48
2019-01-26T10:57:07.146Z,100537.48
2019-01-26T10:58:41.324Z,100529.64
2019-01-26T11:00:15.064Z,100541.50
2019-01-26T11:01:48.095Z,100535.31
2019-01-26T11:03:22.945Z,100538.84
2019-01-26T11:04:55.654Z,100534.50
2019-01-26T11:06:29.402Z,100532.50
2019-01-26T11:08:03.556Z,100540.16
2019-01-26T11:09:36.725Z,100536.34
2019-01-26T11:11:10.773Z,100536.84
2019-01-26T11:12:44.865Z,100532.16
2019-01-26T11:14:18.871Z,100530.83
2019-01-26T11:15:52.851Z,100530.17
2019-01-26T11:17:26.864Z,100531.83
2019-01-26T11:19:07.692Z,100537.35
2019-01-26T11:20:35.330Z,100527.84
2019-01-26T11:22:09.624Z,100522.48
2019-01-26T11:23:43.273Z,100523.34
2019-01-26T11:25:18.018Z,100518.16
2019-01-26T11:26:51.788Z,100517.50
2019-01-26T11:28:26.215Z,100521.83
2019-01-26T11:30:00.531Z,100526.81
2019-01-26T11:31:35.073Z,100520.84
2019-01-26T11:33:09.587Z,100523.66
2019-01-26T11:34:43.608Z,100518.32
2019-01-26T11:36:18.081Z,100517.83
2019-01-26T11:37:53.641Z,100525.96
2019-01-26T11:39:31.458Z,100519.11
2019-01-26T11:41:05.566Z,100519.13
2019-01-26T11:42:38.624Z,100515.79
2019-01-26T11:44:11.937Z,100516.16
2019-01-26T11:45:56.285Z,100522.46
2019-01-26T11:47:29.942Z,100517.11
2019-01-26T11:49:04.669Z,100519.16
2019-01-26T11:50:42.659Z,100516.31
2019-01-26T11:52:17.944Z,100517.97
2019-01-26T11:53:50.678Z,100519.31
2019-01-26T11:55:47.038Z,100513.14
2019-01-26T11:57:27.878Z,100516.14
2019-01-26T11:59:01.636Z,100508.98
2019-01-26T12:00:59.555Z,100507.63
2019-01-26T12:02:34.165Z,100506.46
2019-01-26T12:05:10.020Z,100503.14
2019-01-26T12:06:48.251Z,100505.14
2019-01-26T12:08:21.415Z,100503.63
2019-01-26T12:09:55.640Z,100506.80
2019-01-26T12:11:30.258Z,100499.14
2019-01-26T12:13:04.083Z,100500.14
2019-01-26T12:14:38.965Z,100498.62
2019-01-26T12:16:12.663Z,100502.12
2019-01-26T12:17:46.557Z,100501.44
2019-01-26T12:19:22.440Z,100506.13
2019-01-26T12:20:52.644Z,100506.95
2019-01-26T12:22:25.512Z,100505.80
2019-01-26T12:23:59.637Z,100505.77
2019-01-26T12:25:33.746Z,100502.30
2019-01-26T12:27:07.677Z,100504.47
2019-01-26T12:28:40.381Z,100502.80
2019-01-26T12:30:14.612Z,100498.45
2019-01-26T12:31:48.412Z,100499.30
2019-01-26T12:33:22.682Z,100498.30
2019-01-26T12:34:56.753Z,100501.47
2019-01-26T12:36:30.120Z,100498.63
2019-01-26T12:38:04.218Z,100499.16
2019-01-26T12:39:38.333Z,100495.80
2019-01-26T12:41:12.335Z,100498.14
2019-01-26T12:42:47.607Z,100491.78
2019-01-26T12:44:20.806Z,100498.78
2019-01-26T12:45:54.883Z,100490.42
2019-01-26T12:47:28.183Z,100490.42
2019-01-26T12:49:01.431Z,100501.41
2019-01-26T12:50:35.233Z,100506.77
2019-01-26T12:52:09.239Z,100503.75
2019-01-26T12:53:42.347Z,100496.27
2019-01-26T12:55:15.235Z,100493.95
2019-01-26T12:56:49.222Z,100497.45
2019-01-26T12:58:23.572Z,100491.80
2019-01-26T12:59:57.492Z,100489.45
2019-01-26T13:01:30.514Z,100488.14
2019-01-26T13:03:03.801Z,100488.81
2019-01-26T13:04:37.611Z,100487.30
2019-01-26T13:06:11.370Z,100488.47
2019-01-26T13:07:45.213Z,100488.44
2019-01-26T13:09:19.176Z,100487.25
2019-01-26T13:10:57.186Z,100485.86
2019-01-26T13:12:31.380Z,100483.70
2019-01-26T13:14:05.520Z,100481.31
2019-01-26T13:15:39.420Z,100488.34
2019-01-26T13:17:14.052Z,100488.96
2019-01-26T13:18:48.676Z,100487.48
2019-01-26T13:20:24.221Z,100494.94
2019-01-26T13:21:59.046Z,100503.33
2019-01-26T13:23:32.751Z,100500.34
2019-01-26T13:25:06.954Z,100496.84
2019-01-26T13:26:40.985Z,100491.28
2019-01-26T13:28:15.259Z,100494.94
2019-01-26T13:29:49.278Z,100505.04
2019-01-26T13:31:23.778Z,100496.65
2019-01-26T13:32:57.612Z,100498.49
2019-01-26T13:34:30.665Z,100492.00
2019-01-26T13:36:04.667Z,100495.03
2019-01-26T13:37:37.883Z,100493.89
2019-01-26T13:39:12.761Z,100498.16
2019-01-26T13:40:47.091Z,100500.51
2019-01-26T13:42:19.894Z,100504.20
2019-01-26T13:43:54.015Z,100503.55
2019-01-26T13:45:31.332Z,100501.09
2019-01-26T13:47:05.573Z,100504.13
2019-01-26T13:48:40.626Z,100510.16
2019-01-26T13:50:14.848Z,100506.33
2019-01-26T13:51:49.492Z,100506.68
2019-01-26T13:53:22.513Z,100508.02
2019-01-26T13:54:56.484Z,100505.70
2019-01-26T13:56:30.500Z,100501.69
2019-01-26T13:58:04.571Z,100505.37
2019-01-26T13:59:38.662Z,100498.69
2019-01-26T14:01:12.745Z,100504.39
2019-01-26T14:02:46.934Z,100503.38
2019-01-26T14:04:21.424Z,100498.03
2019-01-26T14:05:55.096Z,100505.91
2019-01-26T14:07:29.216Z,100501.09
2019-01-26T14:09:03.283Z,100501.12
2019-01-26T14:10:37.230Z,100508.30
2019-01-26T14:12:11.382Z,100500.95
2019-01-26T14:13:45.574Z,100498.63
2019-01-26T14:15:19.957Z,100502.30
2019-01-26T14:16:53.030Z,100496.83
2019-01-26T14:18:27.223Z,100502.15
2019-01-26T14:20:01.926Z,100507.81
2019-01-26T14:21:36.334Z,100492.96
2019-01-26T14:23:10.597Z,100490.97
2019-01-26T14:24:44.476Z,100491.31
2019-01-26T14:28:14.292Z,100484.47
2019-01-26T14:29:48.023Z,100487.97
2019-01-26T14:31:24.964Z,100486.97
2019-01-26T14:33:00.583Z,100486.81
2019-01-26T14:34:33.487Z,100490.47
2019-01-26T14:36:07.391Z,100495.63
2019-01-26T14:37:42.421Z,100493.14
2019-01-26T14:39:17.117Z,100489.80
2019-01-26T14:40:51.086Z,100493.31
2019-01-26T14:42:25.100Z,100495.12
2019-01-26T14:43:59.127Z,100500.44
2019-01-26T14:45:35.000Z,100500.12
2019-01-26T14:47:08.795Z,100503.45
2019-01-26T14:48:42.679Z,100515.44
2019-01-26T14:50:16.628Z,100508.45
2019-01-26T14:51:50.507Z,100504.62
2019-01-26T14:53:24.411Z,100515.44
2019-01-26T14:54:58.412Z,100508.45
2019-01-26T14:56:32.292Z,100507.81
2019-01-26T14:58:06.250Z,100504.80
2019-01-26T14:59:41.144Z,100504.80
2019-01-26T15:01:15.152Z,100505.46
2019-01-26T15:02:47.847Z,100511.48
2019-01-26T15:04:21.827Z,100507.81
2019-01-26T15:05:55.780Z,100510.14
2019-01-26T15:07:30.064Z,100512.83
2019-01-26T15:09:04.124Z,100508.66
2019-01-26T15:10:38.133Z,100507.81
2019-01-26T15:12:11.962Z,100505.47
2019-01-26T15:13:45.747Z,100506.81
2019-01-26T15:15:22.005Z,100505.46
2019-01-26T15:16:56.530Z,100501.80
2019-01-26T15:18:30.688Z,100503.12
2019-01-26T15:20:06.262Z,100502.81
2019-01-26T15:21:39.807Z,100509.29
2019-01-26T15:23:13.894Z,100508.43
2019-01-26T15:24:48.785Z,100506.49
2019-01-26T15:26:22.909Z,100504.55
2019-01-26T15:27:56.818Z,100498.83
2019-01-26T15:29:30.708Z,100504.33
2019-01-26T15:31:06.036Z,100503.02
2019-01-26T15:32:39.852Z,100507.02
2019-01-26T15:34:13.720Z,100501.05
2019-01-26T15:35:47.859Z,100502.05
2019-01-26T15:37:21.767Z,100496.72
2019-01-26T15:38:55.957Z,100498.55
2019-01-26T15:40:30.888Z,100501.08
2019-01-26T15:42:05.206Z,100500.77
2019-01-26T15:43:39.094Z,100492.09
2019-01-26T15:45:13.498Z,100497.91
2019-01-26T15:46:47.425Z,100495.58
2019-01-26T15:48:22.651Z,100492.08
2019-01-26T15:49:56.332Z,100490.05
2019-01-26T15:51:30.135Z,100491.03
2019-01-26T15:53:03.959Z,100485.89
2019-01-26T15:54:36.831Z,100491.22
2019-01-26T15:56:10.640Z,100484.20
2019-01-26T15:57:44.518Z,100489.45
2019-01-26T15:59:18.646Z,100493.92
2019-01-26T16:00:56.628Z,100496.03
2019-01-26T16:02:29.424Z,100491.45
2019-01-26T16:04:03.832Z,100492.84
2019-01-26T16:05:37.569Z,100496.96
2019-01-26T16:07:11.621Z,100486.27
2019-01-26T16:08:45.325Z,100490.61
2019-01-26T16:10:19.138Z,100497.89
2019-01-26T16:11:53.416Z,100497.32
2019-01-26T16:13:27.352Z,100494.80
2019-01-26T16:15:01.337Z,100488.92
2019-01-26T16:16:36.285Z,100490.59
2019-01-26T16:18:10.177Z,100499.13
2019-01-26T16:19:44.497Z,100492.06
2019-01-26T16:21:18.303Z,100486.47
2019-01-26T16:22:51.993Z,100489.80
2019-01-26T16:24:25.943Z,100491.05
2019-01-26T16:26:00.038Z,100487.31
2019-01-26T16:27:33.794Z,100483.27
2019-01-26T16:29:07.911Z,100480.98
2019-01-26T16:30:44.894Z,100483.88
2019-01-26T16:32:18.035Z,100484.39
2019-01-26T16:33:53.108Z,100480.67
2019-01-26T16:35:28.844Z,100481.73
2019-01-26T16:37:02.470Z,100488.82
2019-01-26T16:38:36.655Z,100481.89
2019-01-26T16:40:10.463Z,100479.47
2019-01-26T16:41:45.075Z,100477.40
2019-01-26T16:43:19.058Z,100482.53
2019-01-26T16:44:53.073Z,100487.66
2019-01-26T16:46:27.108Z,100488.77
2019-01-26T16:48:01.375Z,100484.70
2019-01-26T16:49:35.329Z,100481.59
2019-01-26T16:51:09.552Z,100487.03
2019-01-26T16:52:43.466Z,100484.42
2019-01-26T16:54:17.535Z,100478.69
2019-01-26T16:55:51.931Z,100484.38
2019-01-26T16:57:26.575Z,100489.98
2019-01-26T16:59:00.466Z,100483.98
2019-01-26T17:00:40.599Z,100477.36
2019-01-26T17:02:14.772Z,100484.90
2019-01-26T17:03:49.190Z,100483.47
2019-01-26T17:05:25.906Z,100483.98
2019-01-26T17:06:58.653Z,100480.86
2019-01-26T17:08:33.773Z,100481.23
2019-01-26T17:10:07.650Z,100478.56
2019-01-26T17:11:41.800Z,100482.62
2019-01-26T17:13:15.995Z,100485.66
2019-01-26T17:14:50.365Z,100488.34
2019-01-26T17:16:25.318Z,100484.70
2019-01-26T17:17:59.208Z,100492.73
2019-01-26T17:19:33.026Z,100486.08
2019-01-26T17:21:07.014Z,100489.09
2019-01-26T17:22:41.377Z,100487.61
2019-01-26T17:24:15.920Z,100479.44
2019-01-26T17:25:50.000Z,100489.64
2019-01-26T17:27:24.017Z,100487.14
2019-01-26T17:28:58.622Z,100485.66
2019-01-26T17:30:35.773Z,100486.16
2019-01-26T17:32:09.811Z,100481.19
2019-01-26T17:33:44.505Z,100490.55
2019-01-26T17:35:18.639Z,100484.87
2019-01-26T17:36:52.614Z,100485.55
2019-01-26T17:38:26.292Z,100488.05
2019-01-26T17:40:01.442Z,100485.27
2019-01-26T17:41:34.242Z,100484.25
2019-01-26T17:43:08.059Z,100484.08
2019-01-26T17:44:41.864Z,100483.57
2019-01-26T17:46:16.277Z,100481.91
2019-01-26T17:47:50.479Z,100482.91
2019-01-26T17:49:24.563Z,100478.08
2019-01-26T17:50:58.628Z,100481.25
2019-01-26T17:52:31.768Z,100484.76
2019-01-26T17:54:05.672Z,100475.58
2019-01-26T17:55:39.784Z,100483.60
2019-01-26T17:57:14.958Z,100478.44
2019-01-26T17:58:48.672Z,100473.27